createdAt,value
2018-11-25T00:01:47.618Z,12.57
2018-11-25T00:04:15.879Z,11.93
2018-11-25T00:06:44.119Z,11.00
2018-11-25T00:09:12.352Z,11.03
2018-11-25T00:11:40.575Z,11.37
2018-11-25T00:14:08.875Z,12.17
2018-11-25T00:16:37.094Z,10.83
2018-11-25T00:19:05.918Z,11.00
2018-11-25T00:21:34.162Z,12.30
2018-11-25T00:24:02.400Z,13.70
2018-11-25T00:26:30.704Z,12.87
2018-11-25T00:28:59.002Z,14.30
2018-11-25T00:31:27.362Z,13.27
2018-11-25T00:33:55.598Z,12.03
2018-11-25T00:36:23.846Z,12.17
2018-11-25T00:38:52.150Z,13.73
2018-11-25T00:41:20.391Z,11.27
2018-11-25T00:43:48.650Z,12.20
2018-11-25T00:46:16.922Z,12.00
2018-11-25T00:48:45.203Z,10.47
2018-11-25T00:51:13.430Z,12.00
2018-11-25T00:53:41.653Z,11.90
2018-11-25T00:56:09.887Z,13.17
2018-11-25T00:58:38.126Z,13.43
2018-11-25T01:01:06.390Z,15.17
2018-11-25T01:03:34.629Z,14.30
2018-11-25T01:06:02.835Z,13.70
2018-11-25T01:08:31.109Z,12.77
2018-11-25T01:10:59.326Z,14.17
2018-11-25T01:13:27.553Z,13.60
2018-11-25T01:15:56.038Z,13.80
2018-11-25T01:18:24.287Z,14.03
2018-11-25T01:20:52.513Z,13.27
2018-11-25T01:23:20.762Z,14.70
2018-11-25T01:25:48.989Z,12.40
2018-11-25T01:28:17.238Z,13.17
2018-11-25T01:30:45.473Z,13.00
2018-11-25T01:33:13.719Z,13.00
2018-11-25T01:35:41.970Z,12.20
2018-11-25T01:38:10.303Z,13.10
2018-11-25T01:40:38.582Z,12.53
2018-11-25T01:43:06.855Z,12.77
2018-11-25T01:45:35.085Z,13.23
2018-11-25T01:48:03.330Z,11.90
2018-11-25T01:50:31.571Z,14.00
2018-11-25T01:52:59.795Z,13.67
2018-11-25T01:55:28.048Z,15.50
2018-11-25T01:57:56.262Z,18.10
2018-11-25T02:00:24.734Z,21.83
2018-11-25T02:02:53.087Z,13.90
2018-11-25T02:05:21.330Z,16.30
2018-11-25T02:07:49.542Z,14.10
2018-11-25T02:10:18.632Z,16.90
2018-11-25T02:12:46.935Z,15.27
2018-11-25T02:15:15.838Z,15.63
2018-11-25T02:17:44.106Z,12.70
2018-11-25T02:20:18.443Z,12.20
2018-11-25T02:22:46.698Z,13.73
2018-11-25T02:25:14.929Z,14.10
2018-11-25T02:27:43.181Z,13.43
2018-11-25T02:30:12.761Z,15.70
2018-11-25T02:32:40.995Z,15.20
2018-11-25T02:35:10.347Z,14.70
2018-11-25T02:37:38.607Z,15.17
2018-11-25T02:40:08.742Z,16.00
2018-11-25T02:42:36.986Z,16.17
2018-11-25T02:45:07.083Z,14.33
2018-11-25T02:47:35.306Z,14.77
2018-11-25T02:50:04.041Z,14.00
2018-11-25T02:52:32.237Z,14.10
2018-11-25T02:55:00.499Z,14.10
2018-11-25T02:57:28.743Z,15.83
2018-11-25T02:59:57.052Z,15.00
2018-11-25T03:02:25.323Z,14.97
2018-11-25T03:04:53.691Z,14.30
2018-11-25T03:07:21.946Z,13.73
2018-11-25T03:09:50.186Z,13.73
2018-11-25T03:12:18.462Z,13.10
2018-11-25T03:14:46.735Z,12.67
2018-11-25T03:17:15.009Z,12.30
2018-11-25T03:19:43.255Z,11.27
2018-11-25T03:22:11.494Z,12.60
2018-11-25T03:24:39.749Z,14.23
2018-11-25T03:27:08.169Z,16.00
2018-11-25T03:29:36.502Z,18.77
2018-11-25T03:32:04.798Z,18.33
2018-11-25T03:34:33.054Z,15.93
2018-11-25T03:37:01.324Z,16.00
2018-11-25T03:39:29.524Z,15.93
2018-11-25T03:41:57.770Z,14.60
2018-11-25T03:44:26.070Z,17.43
2018-11-25T03:46:54.370Z,18.03
2018-11-25T03:49:22.636Z,17.20
2018-11-25T03:51:50.888Z,16.17
2018-11-25T03:54:19.128Z,16.23
2018-11-25T03:56:47.335Z,19.60
2018-11-25T03:59:15.613Z,16.67
2018-11-25T04:01:43.825Z,17.67
2018-11-25T04:04:12.063Z,15.47
2018-11-25T04:06:40.309Z,15.57
2018-11-25T04:09:09.025Z,14.87
2018-11-25T04:11:37.539Z,16.67
2018-11-25T04:14:05.917Z,12.70
2018-11-25T04:16:34.182Z,15.70
2018-11-25T04:19:02.420Z,14.30
2018-11-25T04:21:30.689Z,15.97
2018-11-25T04:23:58.922Z,16.90
2018-11-25T04:26:27.174Z,16.20
2018-11-25T04:28:55.459Z,15.00
2018-11-25T04:31:23.718Z,16.30
2018-11-25T04:33:53.431Z,21.20
2018-11-25T04:36:21.709Z,17.83
2018-11-25T04:38:49.974Z,16.70
2018-11-25T04:41:18.234Z,16.87
2018-11-25T04:43:46.430Z,16.50
2018-11-25T04:46:14.703Z,19.53
2018-11-25T04:48:42.977Z,16.70
2018-11-25T04:51:11.240Z,13.80
2018-11-25T04:53:39.442Z,14.00
2018-11-25T04:56:07.707Z,13.77
2018-11-25T04:58:35.972Z,14.73
2018-11-25T05:01:04.266Z,15.40
2018-11-25T05:03:32.534Z,13.77
2018-11-25T05:06:00.784Z,15.07
2018-11-25T05:08:29.002Z,16.40
2018-11-25T05:10:57.271Z,17.07
2018-11-25T05:14:54.955Z,16.73
2018-11-25T05:17:23.423Z,16.13
2018-11-25T05:19:51.772Z,19.40
2018-11-25T05:22:19.998Z,18.10
2018-11-25T05:24:48.243Z,14.90
2018-11-25T05:27:16.538Z,15.40
2018-11-25T05:29:44.746Z,13.37
2018-11-25T05:32:12.990Z,13.83
2018-11-25T05:34:41.222Z,13.60
2018-11-25T05:37:09.441Z,15.10
2018-11-25T05:39:37.913Z,13.83
2018-11-25T05:42:06.186Z,14.20
2018-11-25T05:44:34.406Z,11.80
2018-11-25T05:47:02.677Z,13.07
2018-11-25T05:49:36.372Z,13.70
2018-11-25T05:51:59.241Z,12.90
2018-11-25T05:54:27.482Z,13.17
2018-11-25T05:56:55.741Z,13.73
2018-11-25T05:59:23.974Z,11.17
2018-11-25T06:01:52.403Z,14.13
2018-11-25T06:04:20.661Z,12.50
2018-11-25T06:06:48.878Z,12.93
2018-11-25T06:09:17.123Z,12.53
2018-11-25T06:11:45.352Z,10.63
2018-11-25T06:14:13.562Z,12.90
2018-11-25T06:16:41.795Z,14.10
2018-11-25T06:19:10.030Z,10.63
2018-11-25T06:21:38.289Z,12.30
2018-11-25T06:24:06.478Z,11.57
2018-11-25T06:26:34.732Z,12.07
2018-11-25T06:29:02.969Z,13.20
2018-11-25T06:31:31.186Z,11.50
2018-11-25T06:33:59.431Z,12.70
2018-11-25T06:36:27.660Z,12.10
2018-11-25T06:38:55.912Z,12.17
2018-11-25T06:41:24.113Z,12.93
2018-11-25T06:43:53.437Z,12.90
2018-11-25T06:46:20.773Z,15.97
2018-11-25T06:48:54.783Z,12.23
2018-11-25T06:51:17.217Z,13.70
2018-11-25T06:53:45.461Z,12.27
2018-11-25T06:56:13.689Z,14.30
2018-11-25T06:58:41.898Z,13.70
2018-11-25T07:01:10.147Z,13.27
2018-11-25T07:03:38.382Z,12.50
2018-11-25T07:06:06.631Z,13.40
2018-11-25T07:08:34.937Z,11.93
2018-11-25T07:11:03.179Z,11.80
2018-11-25T07:13:32.434Z,12.40
2018-11-25T07:16:00.658Z,10.97
2018-11-25T07:18:28.879Z,11.87
2018-11-25T07:20:57.081Z,12.73
2018-11-25T07:23:25.330Z,13.33
2018-11-25T07:25:53.839Z,11.63
2018-11-25T07:28:22.298Z,10.73
2018-11-25T07:30:50.545Z,11.60
2018-11-25T07:33:18.819Z,13.20
2018-11-25T07:35:47.046Z,12.87
2018-11-25T07:38:15.293Z,15.33
2018-11-25T07:40:43.527Z,14.13
2018-11-25T07:43:11.785Z,14.90
2018-11-25T07:45:40.047Z,14.67
2018-11-25T07:48:08.274Z,14.00
2018-11-25T07:50:36.773Z,14.50
2018-11-25T07:53:05.087Z,11.80
2018-11-25T07:55:33.356Z,12.53
2018-11-25T07:58:01.666Z,12.43
2018-11-25T08:00:29.901Z,11.83
2018-11-25T08:02:58.125Z,12.63
2018-11-25T08:05:27.226Z,11.47
2018-11-25T08:07:55.459Z,10.80
2018-11-25T08:10:23.719Z,10.97
2018-11-25T08:12:51.940Z,11.33
2018-11-25T08:15:20.709Z,10.03
2018-11-25T08:17:48.946Z,11.13
2018-11-25T08:20:18.199Z,11.27
2018-11-25T08:22:46.429Z,11.20
2018-11-25T08:25:16.554Z,11.90
2018-11-25T08:27:44.803Z,11.80
2018-11-25T08:30:14.158Z,11.63
2018-11-25T08:32:42.460Z,10.10
2018-11-25T08:35:11.510Z,10.20
2018-11-25T08:37:39.730Z,10.80
2018-11-25T08:40:10.522Z,10.43
2018-11-25T08:42:38.772Z,10.03
2018-11-25T08:45:09.346Z,10.00
2018-11-25T08:47:37.634Z,9.00
2018-11-25T08:50:10.531Z,9.10
2018-11-25T08:52:39.940Z,8.83
2018-11-25T08:55:09.702Z,9.27
2018-11-25T08:57:37.946Z,9.30
2018-11-25T09:00:12.116Z,9.57
2018-11-25T09:02:40.350Z,9.07
2018-11-25T09:05:09.966Z,8.07
2018-11-25T09:07:38.247Z,9.60
2018-11-25T09:10:08.850Z,9.30
2018-11-25T09:12:37.095Z,9.90
2018-11-25T09:15:08.554Z,9.67
2018-11-25T09:17:36.814Z,9.63
2018-11-25T09:20:07.132Z,9.00
2018-11-25T09:22:35.370Z,8.40
2018-11-25T09:25:03.690Z,10.77
2018-11-25T09:27:31.898Z,8.80
2018-11-25T09:30:00.175Z,9.30
2018-11-25T09:32:28.414Z,9.20
2018-11-25T09:34:56.645Z,8.80
2018-11-25T09:37:25.030Z,8.50
2018-11-25T09:39:53.300Z,8.93
2018-11-25T09:42:21.546Z,10.27
2018-11-25T09:44:49.854Z,9.30
2018-11-25T09:47:18.131Z,9.23
2018-11-25T09:49:46.334Z,8.67
2018-11-25T09:52:14.571Z,8.97
2018-11-25T09:54:42.802Z,9.07
2018-11-25T09:57:11.114Z,7.63
2018-11-25T09:59:39.530Z,8.70
2018-11-25T10:02:07.759Z,9.17
2018-11-25T10:04:36.002Z,9.43
2018-11-25T10:07:04.470Z,10.07
2018-11-25T10:09:32.726Z,10.20
2018-11-25T10:12:01.000Z,9.83
2018-11-25T10:14:29.207Z,10.97
2018-11-25T10:16:57.433Z,9.50
2018-11-25T10:19:25.695Z,10.73
2018-11-25T10:21:54.019Z,9.33
2018-11-25T10:24:22.284Z,10.47
2018-11-25T10:26:50.518Z,11.13
2018-11-25T10:29:18.797Z,10.20
2018-11-25T10:31:47.029Z,11.23
2018-11-25T10:34:15.248Z,9.53
2018-11-25T10:36:43.459Z,9.97
2018-11-25T10:39:11.735Z,9.60
2018-11-25T10:41:39.987Z,9.30
2018-11-25T10:44:08.251Z,10.90
2018-11-25T10:46:36.494Z,10.50
2018-11-25T10:49:05.459Z,9.63
2018-11-25T10:51:33.717Z,9.90
2018-11-25T10:54:03.476Z,10.63
2018-11-25T10:56:31.720Z,10.70
2018-11-25T10:58:59.966Z,10.77
2018-11-25T11:01:33.577Z,10.60
2018-11-25T11:04:01.873Z,10.70
2018-11-25T11:06:35.427Z,10.73
2018-11-25T11:09:04.150Z,10.87
2018-11-25T11:11:32.407Z,10.87
2018-11-25T11:14:00.633Z,10.97
2018-11-25T11:16:28.957Z,12.13
2018-11-25T11:18:57.242Z,14.17
2018-11-25T11:21:26.564Z,10.70
2018-11-25T11:23:53.720Z,12.30
2018-11-25T11:26:24.774Z,10.70
2018-11-25T11:28:53.102Z,11.70
2018-11-25T11:31:21.322Z,11.53
2018-11-25T11:33:49.579Z,12.80
2018-11-25T11:36:17.836Z,13.07
2018-11-25T11:38:46.066Z,14.13
2018-11-25T11:41:14.274Z,13.63
2018-11-25T11:43:42.534Z,15.00
2018-11-25T11:46:10.737Z,13.67
2018-11-25T11:48:39.262Z,15.17
2018-11-25T11:51:07.530Z,14.60
2018-11-25T11:53:35.753Z,15.57
2018-11-25T11:56:03.985Z,15.53
2018-11-25T11:58:32.217Z,14.80
2018-11-25T12:01:00.471Z,15.77
2018-11-25T12:03:28.778Z,15.70
2018-11-25T12:05:57.054Z,16.10
2018-11-25T12:08:25.314Z,17.00
2018-11-25T12:10:53.514Z,16.17
2018-11-25T12:13:21.738Z,17.10
2018-11-25T12:15:50.070Z,16.40
2018-11-25T12:18:18.525Z,16.13
2018-11-25T12:20:46.714Z,19.13
2018-11-25T12:23:15.007Z,16.80
2018-11-25T12:25:43.251Z,18.50
2018-11-25T12:28:11.487Z,19.17
2018-11-25T12:30:39.709Z,19.53
2018-11-25T12:33:08.214Z,20.23
2018-11-25T12:35:36.458Z,19.73
2018-11-25T12:38:05.785Z,20.27
2018-11-25T12:40:34.037Z,20.60
2018-11-25T12:43:02.326Z,20.43
2018-11-25T12:45:30.531Z,19.90
2018-11-25T12:47:58.774Z,22.30
2018-11-25T12:50:27.244Z,19.13
2018-11-25T12:52:55.674Z,20.83
2018-11-25T12:55:25.013Z,22.60
2018-11-25T12:57:53.565Z,22.30
2018-11-25T13:00:26.391Z,23.20
2018-11-25T13:02:54.657Z,23.80
2018-11-25T13:05:22.910Z,25.77
2018-11-25T13:07:51.121Z,24.80
2018-11-25T13:10:19.380Z,24.93
2018-11-25T13:12:47.630Z,23.77
2018-11-25T13:15:15.893Z,23.43
2018-11-25T13:17:44.300Z,25.90
2018-11-25T13:20:13.564Z,24.40
2018-11-25T13:22:41.840Z,25.30
2018-11-25T13:25:11.296Z,21.10
2018-11-25T13:27:39.569Z,22.23
2018-11-25T13:30:17.675Z,19.47
2018-11-25T13:32:46.209Z,19.40
2018-11-25T13:35:14.483Z,21.40
2018-11-25T13:37:42.709Z,17.47
2018-11-25T13:40:12.202Z,18.00
2018-11-25T13:42:40.427Z,18.30
2018-11-25T13:45:07.641Z,18.57
2018-11-25T13:47:35.866Z,18.17
2018-11-25T13:50:04.135Z,18.53
2018-11-25T13:52:32.356Z,20.17
2018-11-25T13:55:00.603Z,19.10
2018-11-25T13:57:28.810Z,19.53
2018-11-25T13:59:57.218Z,20.97
2018-11-25T14:02:25.438Z,18.93
2018-11-25T14:04:53.660Z,19.37
2018-11-25T14:07:21.842Z,17.53
2018-11-25T14:09:50.591Z,18.50
2018-11-25T14:12:18.809Z,22.20
2018-11-25T14:14:47.040Z,19.60
2018-11-25T14:17:15.329Z,19.63
2018-11-25T14:19:43.578Z,22.43
2018-11-25T14:28:56.009Z,20.33
2018-11-25T14:31:24.266Z,21.60
2018-11-25T14:33:52.522Z,22.30
2018-11-25T14:36:20.770Z,21.60
2018-11-25T14:38:49.014Z,24.77
2018-11-25T14:41:17.270Z,22.83
2018-11-25T14:43:45.517Z,24.00
2018-11-25T14:46:13.775Z,21.90
2018-11-25T14:48:42.002Z,22.83
2018-11-25T14:51:10.222Z,23.57
2018-11-25T14:53:38.434Z,22.67
2018-11-25T14:56:06.717Z,21.70
2018-11-25T14:58:34.941Z,19.47
2018-11-25T15:01:03.184Z,17.33
2018-11-25T15:03:31.394Z,19.20
2018-11-25T15:05:59.755Z,18.43
2018-11-25T15:08:28.157Z,18.53
2018-11-25T15:10:56.390Z,16.90
2018-11-25T15:13:24.718Z,18.97
2018-11-25T15:15:52.994Z,18.43
2018-11-25T15:18:21.199Z,18.87
2018-11-25T15:20:49.410Z,17.30
2018-11-25T15:23:17.701Z,17.80
2018-11-25T15:25:51.831Z,18.10
2018-11-25T15:28:20.097Z,17.50
2018-11-25T15:32:17.873Z,17.20
2018-11-25T15:34:46.193Z,18.77
2018-11-25T15:37:14.438Z,17.00
2018-11-25T15:39:42.756Z,16.70
2018-11-25T15:42:10.988Z,18.70
2018-11-25T15:44:39.214Z,18.70
2018-11-25T15:47:08.116Z,20.57
2018-11-25T15:49:35.881Z,21.00
2018-11-25T15:52:04.177Z,18.47
2018-11-25T15:54:32.388Z,20.20
2018-11-25T15:57:00.656Z,19.47
2018-11-25T15:59:28.870Z,18.60
2018-11-25T16:01:57.177Z,19.80
2018-11-25T16:04:25.394Z,20.47
2018-11-25T16:06:53.631Z,20.50
2018-11-25T16:09:21.857Z,19.47
2018-11-25T16:11:50.418Z,19.30
2018-11-25T16:14:18.739Z,19.13
2018-11-25T16:16:46.990Z,22.03
2018-11-25T16:19:15.214Z,21.97
2018-11-25T16:21:43.507Z,17.67
2018-11-25T16:24:11.764Z,17.00
2018-11-25T16:26:41.094Z,16.97
2018-11-25T16:29:13.962Z,17.20
2018-11-25T16:31:42.183Z,17.43
2018-11-25T16:34:10.700Z,17.57
2018-11-25T16:36:38.987Z,19.53
2018-11-25T16:39:09.135Z,17.93
2018-11-25T16:41:37.350Z,18.93
2018-11-25T16:44:05.770Z,16.50
2018-11-25T16:46:33.969Z,17.97
2018-11-25T16:49:02.218Z,18.60
2018-11-25T16:51:30.523Z,18.80
2018-11-25T16:53:58.794Z,17.50
2018-11-25T16:56:27.067Z,16.73
2018-11-25T16:58:55.322Z,18.97
2018-11-25T17:01:23.590Z,15.33
2018-11-25T17:03:52.426Z,14.60
2018-11-25T17:06:20.674Z,14.97
2018-11-25T17:08:48.930Z,15.80
2018-11-25T17:11:17.194Z,15.07
2018-11-25T17:13:45.470Z,16.00
2018-11-25T17:16:13.702Z,16.37
2018-11-25T17:18:42.231Z,16.60
2018-11-25T17:21:10.498Z,17.00
2018-11-25T17:23:38.722Z,17.50
2018-11-25T17:26:06.977Z,17.90
2018-11-25T17:28:35.229Z,17.43
2018-11-25T17:31:03.451Z,16.93
2018-11-25T17:33:31.676Z,17.17
2018-11-25T17:35:59.957Z,17.60
2018-11-25T17:38:28.217Z,16.40
2018-11-25T17:40:56.612Z,17.40
2018-11-25T17:43:25.265Z,17.90
2018-11-25T17:45:53.513Z,17.43
2018-11-25T17:48:21.748Z,16.57
2018-11-25T17:50:49.993Z,16.47
2018-11-25T17:53:20.820Z,16.37
2018-11-25T17:55:46.493Z,17.27
2018-11-25T17:58:14.744Z,15.70
2018-11-25T18:00:48.940Z,17.23
2018-11-25T18:03:24.457Z,17.83
2018-11-25T18:05:52.688Z,16.63
2018-11-25T18:08:20.910Z,15.53
2018-11-25T18:10:49.162Z,14.60
2018-11-25T18:13:18.733Z,15.13
2018-11-25T18:15:47.112Z,15.87
2018-11-25T18:18:21.489Z,14.30
2018-11-25T18:20:54.678Z,15.87
2018-11-25T18:23:22.950Z,15.73
2018-11-25T18:25:51.591Z,14.40
2018-11-25T18:28:19.844Z,14.73
2018-11-25T18:30:48.094Z,13.73
2018-11-25T18:33:16.340Z,14.90
2018-11-25T18:35:44.557Z,15.07
2018-11-25T18:38:12.873Z,15.43
2018-11-25T18:40:41.096Z,13.93
2018-11-25T18:43:09.447Z,15.37
2018-11-25T18:45:37.674Z,14.80
2018-11-25T18:48:07.571Z,14.70
2018-11-25T18:50:35.813Z,15.60
2018-11-25T18:53:04.138Z,14.80
2018-11-25T18:55:31.328Z,14.80
2018-11-25T18:57:59.617Z,13.70
2018-11-25T19:00:31.234Z,14.13
2018-11-25T19:02:59.467Z,14.83
2018-11-25T19:05:27.962Z,14.80
2018-11-25T19:07:56.162Z,13.33
2018-11-25T19:10:24.458Z,12.90
2018-11-25T19:12:52.730Z,14.27
2018-11-25T19:16:50.435Z,14.70
2018-11-25T19:19:18.715Z,14.10
2018-11-25T19:21:46.958Z,14.37
2018-11-25T19:24:15.177Z,15.87
2018-11-25T19:26:43.454Z,13.90
2018-11-25T19:29:11.700Z,14.00
2018-11-25T19:31:39.942Z,13.57
2018-11-25T19:34:08.146Z,12.33
2018-11-25T19:36:36.397Z,13.10
2018-11-25T19:39:06.807Z,13.13
2018-11-25T19:41:35.038Z,12.97
2018-11-25T19:44:03.242Z,14.00
2018-11-25T19:46:31.440Z,12.00
2018-11-25T19:48:59.782Z,12.80
2018-11-25T19:51:28.021Z,12.53
2018-11-25T19:53:56.259Z,14.10
2018-11-25T19:56:24.541Z,12.50
2018-11-25T19:58:57.009Z,13.57
2018-11-25T20:01:25.306Z,13.80
2018-11-25T20:03:53.658Z,13.30
2018-11-25T20:06:21.944Z,14.03
2018-11-25T20:08:50.198Z,14.47
2018-11-25T20:11:18.419Z,15.57
2018-11-25T20:13:46.670Z,14.80
2018-11-25T20:16:20.373Z,14.83
2018-11-25T20:18:48.602Z,14.80
2018-11-25T20:21:22.281Z,15.40
2018-11-25T20:23:50.520Z,15.83
2018-11-25T20:26:18.801Z,14.57
2018-11-25T20:28:47.051Z,15.33
2018-11-25T20:31:16.122Z,16.10
2018-11-25T20:33:52.249Z,19.97
2018-11-25T20:36:17.028Z,13.80
2018-11-25T20:38:50.534Z,15.43
2018-11-25T20:41:18.821Z,16.47
2018-11-25T20:43:47.075Z,16.80
2018-11-25T20:46:20.816Z,16.77
2018-11-25T20:48:49.067Z,16.30
2018-11-25T20:51:17.547Z,14.07
2018-11-25T20:53:51.211Z,14.17
2018-11-25T20:56:19.499Z,14.07
2018-11-25T20:58:47.745Z,15.90
2018-11-25T21:01:16.022Z,15.67
2018-11-25T21:03:44.286Z,15.07
2018-11-25T21:06:12.520Z,16.20
2018-11-25T21:08:41.041Z,14.60
2018-11-25T21:11:09.278Z,16.57
2018-11-25T21:13:37.558Z,15.53
2018-11-25T21:16:05.789Z,14.87
2018-11-25T21:18:34.051Z,14.97
2018-11-25T21:21:02.299Z,14.60
2018-11-25T21:23:30.598Z,15.10
2018-11-25T21:25:58.819Z,16.57
2018-11-25T21:28:27.068Z,16.30
2018-11-25T21:30:55.293Z,15.50
2018-11-25T21:33:23.524Z,17.37
2018-11-25T21:35:51.831Z,16.50
2018-11-25T21:38:20.070Z,17.70
2018-11-25T21:40:48.306Z,15.27
2018-11-25T21:43:16.590Z,16.33
2018-11-25T21:45:44.854Z,15.53
2018-11-25T21:48:13.078Z,17.50
2018-11-25T21:50:41.290Z,18.20
2018-11-25T21:53:09.550Z,17.00
2018-11-25T21:55:38.092Z,16.10
2018-11-25T21:58:07.128Z,18.27
2018-11-25T22:00:35.351Z,16.87
2018-11-25T22:03:03.581Z,17.03
2018-11-25T22:05:31.829Z,17.47
2018-11-25T22:08:00.121Z,16.87
2018-11-25T22:10:28.343Z,16.77
2018-11-25T22:12:56.611Z,17.63
2018-11-25T22:15:24.877Z,16.33
2018-11-25T22:17:53.111Z,14.80
2018-11-25T22:20:22.473Z,15.60
2018-11-25T22:22:50.810Z,15.63
2018-11-25T22:25:19.938Z,16.20
2018-11-25T22:27:48.334Z,16.27
2018-11-25T22:30:17.748Z,17.43
2018-11-25T22:32:46.050Z,16.30
2018-11-25T22:35:15.397Z,16.87
2018-11-25T22:37:43.632Z,16.53
2018-11-25T22:40:12.832Z,15.83
2018-11-25T22:42:43.102Z,15.90
2018-11-25T22:45:12.198Z,16.63
2018-11-25T22:47:40.450Z,16.60
2018-11-25T22:50:16.957Z,17.43
2018-11-25T22:52:45.229Z,15.87
2018-11-25T22:55:20.436Z,16.30
2018-11-25T22:57:48.787Z,16.27
2018-11-25T23:00:30.106Z,16.53
2018-11-25T23:02:58.394Z,16.37
2018-11-25T23:05:37.778Z,18.23
2018-11-25T23:08:06.057Z,16.80
2018-11-25T23:10:34.337Z,16.40
2018-11-25T23:13:02.621Z,15.00
2018-11-25T23:15:30.878Z,15.80
2018-11-25T23:17:59.110Z,15.10
2018-11-25T23:20:27.346Z,15.83
2018-11-25T23:22:55.604Z,14.33
2018-11-25T23:25:23.893Z,15.13
2018-11-25T23:27:52.191Z,16.13
2018-11-25T23:30:20.454Z,16.73
2018-11-25T23:32:48.728Z,15.60
2018-11-25T23:35:19.156Z,17.20
2018-11-25T23:37:47.398Z,16.40
2018-11-25T23:40:15.622Z,13.40
2018-11-25T23:42:43.897Z,17.50
2018-11-25T23:45:13.461Z,16.20
2018-11-25T23:47:41.714Z,15.53
2018-11-25T23:50:11.119Z,16.37
2018-11-25T23:52:39.438Z,16.27
2018-11-25T23:55:09.788Z,17.60
2018-11-25T23:57:38.078Z,16.10
